Time;durP1;ratioP1;P1;durP2;ratioP2;P2;SDS_P1;SDS_P2;PMS_P1;PMS_P2;Temp;Humidity;BMP_temperature;BMP_pressure;BME280_temperature;BME280_humidity;BME280_pressure;Samples;Min_cycle;Max_cycle;Signal;HPM_P1;HPM_P2
2021/08/08 00:00:04;;;;;;;7.20;4.30;;;;;;;16.28;100.00;98902.67;1628108;87;21077;-74
2021/08/08 00:02:39;;;;;;;11.55;4.70;;;;;;;16.31;100.00;98897.70;1673671;82;21027;-73
2021/08/08 00:05:52;;;;;;;;;;;;;;;;;;;;;
2021/08/08 00:08:51;;;;;;;5.58;3.47;;;;;;;16.34;100.00;98898.47;1725496;81;22123;-71
2021/08/08 00:11:27;;;;;;;5.75;3.35;;;;;;;16.36;100.00;98895.76;1720692;81;20982;-73
2021/08/08 00:14:01;;;;;;;4.15;3.08;;;;;;;16.40;100.00;98899.19;1724752;81;21485;-72
2021/08/08 00:16:56;;;;;;;6.65;3.60;;;;;;;16.37;100.00;98898.37;1739164;81;21122;-72
2021/08/08 00:21:46;;;;;;;4.33;3.85;;;;;;;16.36;100.00;98904.61;1720933;83;21169;-72
2021/08/08 00:24:19;;;;;;;4.17;3.77;;;;;;;16.33;100.00;98905.18;1742648;81;21003;-74
2021/08/08 00:26:48;;;;;;;3.60;3.25;;;;;;;16.28;100.00;98907.99;1739962;80;20914;-72
2021/08/08 00:29:30;;;;;;;5.83;3.17;;;;;;;16.25;100.00;98908.55;1738133;80;27674;-72
2021/08/08 00:31:59;;;;;;;5.17;3.80;;;;;;;16.23;100.00;98903.28;1719711;82;20992;-72
2021/08/08 00:34:31;;;;;;;4.42;4.03;;;;;;;16.20;100.00;98906.05;1729070;81;21202;-73
2021/08/08 00:37:11;;;;;;;17.90;5.20;;;;;;;16.18;100.00;98901.69;1739558;81;20899;-73
2021/08/08 00:39:41;;;;;;;6.08;4.33;;;;;;;16.10;100.00;98892.62;1748822;81;20983;-74
2021/08/08 00:42:15;;;;;;;5.97;4.53;;;;;;;16.05;100.00;98886.09;1755548;80;20939;-75
2021/08/08 00:45:02;;;;;;;8.00;4.40;;;;;;;16.05;100.00;98886.09;1776198;80;20928;-74
2021/08/08 00:47:38;;;;;;;4.47;3.50;;;;;;;15.99;100.00;98888.95;1757337;80;21185;-74
2021/08/08 00:50:13;;;;;;;6.58;3.72;;;;;;;15.94;100.00;98892.68;1772789;80;21434;-74
2021/08/08 00:52:41;;;;;;;6.78;3.92;;;;;;;15.92;100.00;98895.39;1750097;80;21442;-72
2021/08/08 00:55:17;;;;;;;4.60;3.90;;;;;;;15.90;100.00;98900.34;1768729;80;21402;-72
2021/08/08 00:57:48;;;;;;;6.90;4.30;;;;;;;15.87;100.00;98904.44;1778462;80;20919;-71
2021/08/08 01:00:25;;;;;;;6.60;3.67;;;;;;;15.81;100.00;98901.97;1772885;80;21152;-71
2021/08/08 01:03:01;;;;;;;6.30;4.03;;;;;;;15.74;100.00;98904.82;1772534;80;20939;-71
2021/08/08 01:08:21;;;;;;;6.12;3.70;;;;;;;15.77;100.00;98908.30;1771941;80;21003;-72
2021/08/08 01:11:03;;;;;;;4.12;3.70;;;;;;;15.77;100.00;98913.63;1766751;80;21010;-72
2021/08/08 01:13:37;;;;;;;5.45;3.10;;;;;;;15.76;100.00;98914.54;1769903;80;21069;-72
2021/08/08 01:16:14;;;;;;;4.17;3.25;;;;;;;15.73;100.00;98913.71;1773029;80;20891;-73
2021/08/08 01:18:46;;;;;;;7.28;2.72;;;;;;;15.69;100.00;98920.50;1768680;80;20941;-72
2021/08/08 01:21:16;;;;;;;3.87;2.60;;;;;;;15.69;100.00;98920.50;1740246;80;20927;-72
2021/08/08 01:23:52;;;;;;;2.62;2.42;;;;;;;15.71;100.00;98930.63;1786671;79;20995;-72
2021/08/08 01:26:18;;;;;;;5.05;3.00;;;;;;;15.63;100.00;98930.87;1774751;80;21044;-73
2021/08/08 01:28:53;;;;;;;4.33;2.72;;;;;;;15.63;100.00;98930.87;1773060;80;21437;-73
2021/08/08 01:31:24;;;;;;;6.60;3.00;;;;;;;15.66;100.00;98936.55;1760421;80;21049;-72
2021/08/08 01:33:53;;;;;;;4.20;3.15;;;;;;;15.63;100.00;98938.84;1777697;80;20994;-72
2021/08/08 01:36:27;;;;;;;6.67;3.00;;;;;;;15.62;100.00;98939.77;1780992;80;21013;-73
2021/08/08 01:39:19;;;;;;;3.47;2.90;;;;;;;15.62;100.00;98937.56;1771309;80;21394;-73
2021/08/08 01:41:57;;;;;;;4.40;3.02;;;;;;;15.61;100.00;98932.70;1771636;80;20985;-73
2021/08/08 01:44:31;;;;;;;5.47;3.30;;;;;;;15.58;100.00;98932.76;1778693;80;20978;-74
2021/08/08 01:47:03;;;;;;;4.67;2.92;;;;;;;15.57;100.00;98946.06;1769631;80;20962;-73
2021/08/08 01:49:38;;;;;;;3.35;2.75;;;;;;;15.53;100.00;98944.41;1751004;81;20847;-75
2021/08/08 01:52:09;;;;;;;3.05;2.60;;;;;;;15.49;100.00;98944.09;1774096;80;21320;-75
2021/08/08 01:54:41;;;;;;;3.08;2.72;;;;;;;15.46;100.00;98950.83;1765648;80;21034;-75
2021/08/08 01:57:12;;;;;;;4.35;3.17;;;;;;;15.45;100.00;98947.30;1782750;80;21493;-74
2021/08/08 01:59:52;;;;;;;2.95;2.65;;;;;;;15.43;100.00;98947.80;1790059;80;21038;-73
2021/08/08 02:02:26;;;;;;;3.37;2.40;;;;;;;15.40;100.00;98949.22;1779910;80;20939;-73
2021/08/08 02:05:03;;;;;;;4.60;2.67;;;;;;;15.37;100.00;98942.20;1772051;80;21239;-73
2021/08/08 02:07:34;;;;;;;3.10;2.60;;;;;;;15.36;100.00;98948.89;1778318;80;20966;-72
2021/08/08 02:10:09;;;;;;;7.35;2.85;;;;;;;15.34;100.00;98954.25;1777710;80;21002;-73
2021/08/08 02:12:42;;;;;;;2.45;2.25;;;;;;;15.36;100.00;98952.42;1767840;80;21513;-73
2021/08/08 02:15:19;;;;;;;2.72;2.35;;;;;;;15.39;100.00;98956.32;1771524;80;21062;-73
2021/08/08 02:17:52;;;;;;;5.95;2.70;;;;;;;15.41;100.00;98963.79;1773392;80;21311;-73
2021/08/08 02:20:31;;;;;;;7.17;2.40;;;;;;;15.39;100.00;98962.96;1768175;80;21045;-72
2021/08/08 02:23:03;;;;;;;6.10;2.90;;;;;;;15.36;100.00;98964.84;1776365;80;21002;-73
2021/08/08 02:25:33;;;;;;;4.75;2.58;;;;;;;15.36;100.00;98970.16;1766859;80;20982;-73
2021/08/08 02:28:10;;;;;;;5.08;2.67;;;;;;;15.35;100.00;98972.39;1774366;80;20924;-72
2021/08/08 02:30:38;;;;;;;4.90;2.80;;;;;;;15.38;100.00;98978.95;1767807;80;21164;-73
2021/08/08 02:33:23;;;;;;;4.55;2.72;;;;;;;15.37;100.00;98983.86;1778762;80;21058;-73
2021/08/08 02:35:57;;;;;;;4.00;2.95;;;;;;;15.32;100.00;98987.97;1774539;80;20948;-71
2021/08/08 02:38:29;;;;;;;3.27;2.83;;;;;;;15.27;100.00;98982.38;1762372;80;20963;-67
2021/08/08 02:41:00;;;;;;;3.87;2.98;;;;;;;15.22;100.00;98979.84;1764763;80;21497;-67
2021/08/08 02:43:31;;;;;;;4.40;2.80;;;;;;;15.19;100.00;98982.59;1761887;79;21532;-65
2021/08/08 02:46:05;;;;;;;2.87;2.45;;;;;;;15.17;100.00;98983.08;1767575;79;21433;-68
2021/08/08 02:48:38;;;;;;;3.72;2.92;;;;;;;15.18;100.00;98986.16;1762264;79;21436;-69
2021/08/08 02:51:10;;;;;;;7.83;3.08;;;;;;;15.22;100.00;98992.26;1766987;79;21407;-69
2021/08/08 02:53:45;;;;;;;8.10;3.30;;;;;;;15.19;100.00;98995.87;1743706;79;20916;-68
2021/08/08 02:56:13;;;;;;;10.32;4.15;;;;;;;15.14;100.00;98991.59;1764966;79;21154;-69
2021/08/08 02:58:50;;;;;;;8.63;3.98;;;;;;;15.10;100.00;98993.43;1762170;79;20987;-69
2021/08/08 03:01:19;;;;;;;5.10;3.37;;;;;;;15.06;100.00;98995.30;1761390;80;20999;-67
2021/08/08 03:03:50;;;;;;;5.58;3.02;;;;;;;15.06;100.00;98999.73;1743817;80;21530;-67
2021/08/08 03:06:19;;;;;;;3.75;2.95;;;;;;;15.09;100.00;99004.52;1764308;80;21074;-67
2021/08/08 03:08:48;;;;;;;3.05;2.70;;;;;;;15.09;100.00;99002.31;1762308;80;21923;-68
2021/08/08 03:11:17;;;;;;;7.20;4.08;;;;;;;15.09;100.00;99000.98;1764367;80;20990;-69
2021/08/08 03:13:46;;;;;;;13.98;4.50;;;;;;;15.07;100.00;99006.34;1769471;79;21211;-68
2021/08/08 03:16:17;;;;;;;3.83;3.50;;;;;;;15.05;100.00;99008.16;1761421;79;21632;-68
2021/08/08 03:18:49;;;;;;;3.60;2.90;;;;;;;15.03;100.00;99009.98;1761947;79;22173;-68
2021/08/08 03:21:19;;;;;;;3.75;2.60;;;;;;;15.03;100.00;99012.64;1765051;79;21801;-68
2021/08/08 03:23:53;;;;;;;3.30;2.60;;;;;;;15.02;100.00;99004.26;1768980;79;21624;-68
2021/08/08 03:26:23;;;;;;;2.58;2.37;;;;;;;15.03;100.00;99012.64;1773320;80;21050;-68
2021/08/08 03:28:54;;;;;;;3.05;2.40;;;;;;;15.03;100.00;99015.30;1761856;80;20962;-68
2021/08/08 03:31:27;;;;;;;2.60;1.90;;;;;;;15.03;100.00;99011.31;1765668;80;21505;-68
2021/08/08 03:33:58;;;;;;;2.98;2.20;;;;;;;15.08;100.00;99012.06;1737307;81;21130;-68
2021/08/08 03:36:27;;;;;;;2.55;2.33;;;;;;;15.12;100.00;99009.74;1741765;81;21481;-68
2021/08/08 03:39:03;;;;;;;2.95;2.30;;;;;;;15.15;100.00;99014.59;1739930;81;21618;-68
2021/08/08 03:41:33;;;;;;;2.60;2.40;;;;;;;15.16;100.00;99016.34;1745635;81;21512;-68
2021/08/08 03:44:02;;;;;;;2.65;2.30;;;;;;;15.17;100.00;99014.97;1741398;81;20999;-67
2021/08/08 03:46:33;;;;;;;7.03;2.85;;;;;;;15.20;100.00;99012.69;1766110;80;21462;-69
2021/08/08 03:49:05;;;;;;;4.65;3.67;;;;;;;15.27;100.00;99008.95;1756273;80;21470;-69
2021/08/08 03:51:33;;;;;;;6.87;5.75;;;;;;;15.33;100.00;99018.08;1757077;80;20964;-68
2021/08/08 03:54:02;;;;;;;9.70;8.75;;;;;;;15.38;100.00;99016.16;1755777;80;21473;-71
2021/08/08 03:56:38;;;;;;;11.03;7.65;;;;;;;15.43;100.00;99016.45;1766939;80;20960;-69
2021/08/08 03:59:04;;;;;;;7.05;6.40;;;;;;;15.51;100.00;99016.23;1766527;80;21370;-69
2021/08/08 04:01:33;;;;;;;5.97;5.37;;;;;;;15.60;100.00;99021.78;1758736;80;20887;-69
2021/08/08 04:04:03;;;;;;;5.60;5.10;;;;;;;15.69;100.00;99017.56;1750995;81;20996;-69
2021/08/08 04:06:32;;;;;;;6.53;5.50;;;;;;;15.77;100.00;99018.67;1761576;80;20975;-67
2021/08/08 04:09:00;;;;;;;7.75;4.85;;;;;;;15.88;100.00;99022.75;1763116;80;20947;-67
2021/08/08 04:11:29;;;;;;;6.42;4.33;;;;;;;15.99;100.00;99025.97;1774363;80;22141;-68
2021/08/08 04:14:00;;;;;;;4.42;4.03;;;;;;;15.99;100.00;99025.97;1767437;80;21442;-68
2021/08/08 04:16:30;;;;;;;11.70;4.42;;;;;;;16.06;100.00;99026.19;1767125;80;20975;-67
2021/08/08 04:18:59;;;;;;;8.05;5.20;;;;;;;16.15;100.00;99026.41;1768350;80;21486;-67
2021/08/08 04:21:28;;;;;;;7.28;3.92;;;;;;;16.23;100.00;99021.72;1765628;80;20951;-68
2021/08/08 04:23:58;;;;;;;7.20;3.55;;;;;;;16.28;100.00;99015.79;1762425;80;21639;-67
2021/08/08 04:26:27;;;;;;;5.92;3.42;;;;;;;16.37;100.00;99012.84;1765855;80;21236;-67
2021/08/08 04:28:56;;;;;;;4.35;3.85;;;;;;;16.46;100.00;98992.16;1755485;80;20998;-68
2021/08/08 04:31:26;;;;;;;11.15;4.12;;;;;;;16.55;100.00;99003.38;1764665;80;21073;-67
2021/08/08 04:33:55;;;;;;;4.22;3.08;;;;;;;16.64;100.00;99004.91;1756946;80;21062;-66
2021/08/08 04:36:25;;;;;;;4.05;2.92;;;;;;;16.73;100.00;99001.09;1757229;80;21130;-67
2021/08/08 04:38:57;;;;;;;5.00;3.10;;;;;;;16.85;100.00;99000.22;1757003;80;20978;-67
2021/08/08 04:41:30;;;;;;;6.25;3.70;;;;;;;16.97;100.00;98999.80;1762463;80;21134;-66
2021/08/08 04:43:57;;;;;;;9.53;5.58;;;;;;;17.09;100.00;99002.53;1762895;80;21107;-67
2021/08/08 04:46:26;;;;;;;7.08;4.08;;;;;;;17.21;100.00;98995.91;1775005;80;21127;-68
2021/08/08 04:48:55;;;;;;;7.75;3.42;;;;;;;17.31;100.00;98999.52;1782469;80;21145;-69
2021/08/08 04:51:23;;;;;;;7.15;3.15;;;;;;;17.44;100.00;99005.74;1767392;80;20982;-68
2021/08/08 04:53:53;;;;;;;4.87;2.92;;;;;;;17.55;100.00;99006.25;1765937;80;20996;-68
2021/08/08 04:56:30;;;;;;;4.60;3.40;;;;;;;17.67;100.00;99002.30;1764648;81;21527;-73
2021/08/08 04:58:57;;;;;;;4.42;3.10;;;;;;;17.78;100.00;98997.43;1787450;80;21132;-73
2021/08/08 05:01:27;;;;;;;5.28;3.40;;;;;;;17.90;100.00;98998.30;1788967;80;22002;-74
2021/08/08 05:03:59;;;;;;;5.03;3.62;;;;;;;18.00;100.00;99001.05;1781368;80;21490;-70
2021/08/08 05:06:32;;;;;;;6.70;3.25;;;;;;;18.09;100.00;99003.83;1764300;80;20983;-70
2021/08/08 05:09:03;;;;;;;10.20;3.80;;;;;;;18.20;100.00;99010.48;1764616;81;21551;-70
2021/08/08 05:11:36;;;;;;;5.78;3.33;;;;;;;18.29;100.00;99003.91;1768820;80;21606;-69
2021/08/08 05:14:08;;;;;;;5.62;3.45;;;;;;;18.37;100.00;99002.27;1764305;81;21516;-69
2021/08/08 05:16:39;;;;;;;4.97;3.20;;;;;;;18.47;100.00;99004.54;1764235;81;20873;-70
2021/08/08 05:19:08;;;;;;;5.00;2.92;;;;;;;18.58;100.00;98999.23;1764696;81;21467;-68
2021/08/08 05:21:42;;;;;;;6.00;2.80;;;;;;;18.73;100.00;98994.16;1764308;81;21415;-69
2021/08/08 05:24:18;;;;;;;7.90;3.65;;;;;;;18.85;100.00;98995.44;1764420;81;21012;-70
2021/08/08 05:26:48;;;;;;;4.45;3.47;;;;;;;18.98;100.00;98991.81;1764359;81;21436;-69
2021/08/08 05:29:19;;;;;;;3.98;3.52;;;;;;;19.09;100.00;98993.55;1764275;81;21419;-69
2021/08/08 05:31:57;;;;;;;7.70;3.40;;;;;;;19.19;100.00;98994.42;1764252;81;20936;-69
2021/08/08 05:34:25;;;;;;;3.95;3.25;;;;;;;19.30;100.00;99003.78;1764324;81;20948;-68
2021/08/08 05:36:55;;;;;;;6.75;3.20;;;;;;;19.40;100.00;99009.16;1763275;81;20980;-69
2021/08/08 05:39:24;;;;;;;5.87;3.35;;;;;;;19.49;100.00;99013.63;1764588;80;21188;-70
2021/08/08 05:41:52;;;;;;;5.42;3.83;;;;;;;19.57;100.00;99013.80;1764280;81;21051;-69
2021/08/08 05:44:22;;;;;;;4.40;4.00;;;;;;;19.65;100.00;99017.86;1764330;80;21412;-70
2021/08/08 05:46:52;;;;;;;5.97;3.70;;;;;;;19.68;100.00;99014.17;1764331;81;21574;-69
2021/08/08 05:49:21;;;;;;;11.30;3.60;;;;;;;19.74;100.00;99016.58;1764576;80;20900;-70
2021/08/08 05:51:51;;;;;;;6.78;3.70;;;;;;;19.79;100.00;99022.59;1764371;81;21156;-70
2021/08/08 05:54:20;;;;;;;4.05;3.47;;;;;;;19.85;100.00;99033.02;1758032;81;21476;-70
2021/08/08 05:56:48;;;;;;;11.78;3.80;;;;;;;19.92;100.00;99033.63;1764258;81;20929;-70
2021/08/08 05:59:16;;;;;;;27.58;5.00;;;;;;;19.98;100.00;99034.22;1764439;80;20956;-70
2021/08/08 06:01:49;;;;;;;7.60;3.80;;;;;;;20.02;100.00;99039.83;1764296;81;20849;-70
2021/08/08 06:04:15;;;;;;;4.55;3.52;;;;;;;20.03;100.00;99041.57;1763807;81;21166;-70
2021/08/08 06:06:43;;;;;;;5.95;3.60;;;;;;;20.10;100.00;99040.34;1764209;81;20940;-69
2021/08/08 06:09:19;;;;;;;8.33;3.80;;;;;;;20.19;100.00;99034.16;1764266;81;20908;-69
2021/08/08 06:11:48;;;;;;;4.60;3.70;;;;;;;20.27;100.00;99040.02;1764509;81;20924;-70
2021/08/08 06:14:17;;;;;;;4.70;3.75;;;;;;;20.36;100.00;99040.95;1764638;80;21432;-70
2021/08/08 06:16:47;;;;;;;5.20;3.98;;;;;;;20.42;100.00;99040.22;1764209;81;21423;-70
2021/08/08 06:19:21;;;;;;;6.37;3.55;;;;;;;20.49;100.00;99039.93;1764178;80;20932;-70
2021/08/08 06:21:51;;;;;;;6.87;3.60;;;;;;;20.56;100.00;99040.03;1764313;81;21610;-69
2021/08/08 06:24:23;;;;;;;4.97;3.30;;;;;;;20.66;100.00;99043.53;1764193;81;20961;-70
2021/08/08 06:26:51;;;;;;;4.15;3.40;;;;;;;20.77;100.00;99035.43;1764189;81;20929;-70
2021/08/08 06:29:20;;;;;;;4.08;3.08;;;;;;;20.88;100.00;99039.34;1764395;81;21081;-71
2021/08/08 06:31:51;;;;;;;4.03;3.20;;;;;;;20.97;100.00;99034.86;1764126;81;20945;-71
2021/08/08 06:34:19;;;;;;;6.97;3.17;;;;;;;21.11;100.00;99042.21;1764392;81;20936;-70
2021/08/08 06:36:48;;;;;;;3.40;3.10;;;;;;;21.23;100.00;99044.78;1764136;81;20905;-70
2021/08/08 06:39:19;;;;;;;5.03;3.35;;;;;;;21.36;100.00;99036.05;1764522;81;20932;-70
2021/08/08 06:41:50;;;;;;;4.83;3.47;;;;;;;21.50;100.00;99045.20;1764186;81;20842;-70
2021/08/08 06:44:20;;;;;;;3.77;3.35;;;;;;;21.61;100.00;99048.19;1764094;81;21388;-70
2021/08/08 06:46:49;;;;;;;3.62;3.30;;;;;;;21.71;100.00;99046.75;1763869;81;20912;-70
2021/08/08 06:49:17;;;;;;;4.03;2.92;;;;;;;21.83;100.00;99046.59;1763945;80;21503;-72
2021/08/08 06:51:46;;;;;;;4.53;3.12;;;;;;;21.92;100.00;99047.45;1764253;81;21427;-71
2021/08/08 06:54:15;;;;;;;5.72;2.60;;;;;;;22.03;100.00;99044.17;1764366;81;21143;-70
2021/08/08 06:56:44;;;;;;;3.22;2.92;;;;;;;22.15;100.00;99036.82;1764246;81;20842;-70
2021/08/08 06:59:12;;;;;;;4.72;2.80;;;;;;;22.30;100.00;99031.98;1764363;81;21546;-70
2021/08/08 07:01:41;;;;;;;3.67;2.95;;;;;;;22.43;100.00;99036.19;1764155;81;20976;-71
2021/08/08 07:04:09;;;;;;;3.47;2.52;;;;;;;22.54;100.00;99034.63;1764531;81;20931;-70
2021/08/08 07:06:38;;;;;;;3.98;2.58;;;;;;;22.61;100.00;99023.05;1764125;81;21101;-71
2021/08/08 07:09:09;;;;;;;4.22;2.65;;;;;;;22.68;100.00;99025.77;1764492;81;20896;-70
2021/08/08 07:11:38;;;;;;;3.67;2.35;;;;;;;22.79;100.00;99027.39;1764240;80;20935;-71
2021/08/08 07:14:08;;;;;;;10.32;3.37;;;;;;;22.93;100.00;99036.91;1764747;81;21545;-70
2021/08/08 07:16:36;;;;;;;3.72;2.45;;;;;;;23.09;100.00;99036.00;1764248;81;20905;-69
2021/08/08 07:19:06;;;;;;;4.92;2.55;;;;;;;23.22;100.00;99036.56;1764302;81;21812;-70
2021/08/08 07:21:34;;;;;;;3.80;2.00;;;;;;;23.34;100.00;99028.23;1764279;81;21018;-68
2021/08/08 07:24:03;;;;;;;2.40;2.20;;;;;;;23.49;100.00;99034.03;1764575;81;20976;-71
2021/08/08 07:26:32;;;;;;;3.67;2.30;;;;;;;23.64;100.00;99032.75;1764429;81;21547;-70
2021/08/08 07:29:01;;;;;;;3.42;2.10;;;;;;;23.79;100.00;99039.43;1764549;81;20861;-70
2021/08/08 07:31:30;;;;;;;3.42;1.98;;;;;;;23.94;100.00;99038.09;1764275;81;21436;-69
2021/08/08 07:33:58;;;;;;;5.87;2.08;;;;;;;24.08;100.00;99040.78;1764104;81;20904;-70
2021/08/08 07:36:27;;;;;;;5.75;2.17;;;;;;;24.22;100.00;99036.77;1764150;80;20961;-70
2021/08/08 07:38:55;;;;;;;4.67;2.10;;;;;;;24.35;100.00;99038.23;1764208;81;20936;-71
2021/08/08 07:41:23;;;;;;;3.58;1.90;;;;;;;24.47;100.00;99034.73;1764349;81;20901;-70
2021/08/08 07:43:52;;;;;;;4.00;1.85;;;;;;;24.60;100.00;99033.49;1763707;81;21195;-70
2021/08/08 07:46:21;;;;;;;2.75;1.90;;;;;;;24.70;100.00;99025.18;1753383;82;21424;-69
2021/08/08 07:48:50;;;;;;;2.87;1.80;;;;;;;24.82;100.00;99027.55;1753344;82;20869;-71
2021/08/08 07:51:20;;;;;;;3.83;1.90;;;;;;;24.91;100.00;99021.05;1753261;82;20900;-70
2021/08/08 07:53:49;;;;;;;2.70;1.60;;;;;;;25.03;100.00;99026.14;1753589;81;20976;-70
2021/08/08 07:56:17;;;;;;;2.77;1.92;;;;;;;25.14;100.00;99020.05;1753215;81;21547;-71
2021/08/08 07:58:46;;;;;;;3.42;1.57;;;;;;;25.24;100.00;99019.81;1755288;80;20944;-71
2021/08/08 08:01:15;;;;;;;3.45;1.47;;;;;;;25.34;100.00;99015.52;1735129;81;21406;-71
2021/08/08 08:03:44;;;;;;;3.02;1.70;;;;;;;25.43;100.00;99014.39;1753537;81;20939;-72
2021/08/08 08:06:14;;;;;;;3.58;2.12;;;;;;;25.53;100.00;99012.41;1753362;81;21519;-71
2021/08/08 08:08:44;;;;;;;2.20;1.50;;;;;;;25.63;100.00;99017.09;1753261;81;21469;-72
2021/08/08 08:11:14;;;;;;;2.10;1.40;;;;;;;25.76;100.00;99016.27;1740567;81;21435;-73
2021/08/08 08:13:44;;;;;;;2.25;1.70;;;;;;;25.84;100.00;99015.23;1753286;81;20944;-71
2021/08/08 08:16:14;;;;;;;1.85;1.50;;;;;;;25.97;100.00;99028.25;1753165;81;21486;-73
2021/08/08 08:18:43;;;;;;;4.47;1.60;;;;;;;26.07;100.00;99027.14;1753386;81;21502;-71
2021/08/08 08:21:11;;;;;;;2.87;1.55;;;;;;;26.16;100.00;99016.53;1753261;81;21143;-72
2021/08/08 08:23:39;;;;;;;3.08;1.45;;;;;;;26.27;100.00;99017.10;1753140;81;20920;-71
2021/08/08 08:26:06;;;;;;;5.28;1.50;;;;;;;26.34;100.00;99017.93;1753342;81;21382;-72
2021/08/08 08:28:35;;;;;;;2.35;1.75;;;;;;;26.41;100.00;99018.83;1753422;81;20964;-72
2021/08/08 08:31:03;;;;;;;3.20;1.70;;;;;;;26.49;100.00;99015.98;1753248;81;20939;-71
2021/08/08 08:33:32;;;;;;;1.90;1.50;;;;;;;26.61;100.00;99008.30;1753598;81;21807;-72
2021/08/08 08:36:02;;;;;;;1.75;1.60;;;;;;;26.72;100.00;99008.00;1753110;81;20986;-72
2021/08/08 08:38:29;;;;;;;1.92;1.52;;;;;;;26.82;100.00;99004.48;1755533;80;20955;-72
2021/08/08 08:40:59;;;;;;;2.65;1.55;;;;;;;26.93;99.80;99007.25;1769282;80;20939;-72
2021/08/08 08:43:28;;;;;;;2.00;1.60;;;;;;;26.97;92.50;99002.50;1783812;80;20844;-73
2021/08/08 08:45:57;;;;;;;14.78;1.80;;;;;;;27.06;94.97;99001.83;1739281;81;21722;-73
2021/08/08 08:48:25;;;;;;;3.50;1.47;;;;;;;27.14;92.08;98999.41;1748244;81;21466;-71
2021/08/08 08:50:54;;;;;;;4.85;1.85;;;;;;;27.22;90.77;98999.68;1796317;80;20923;-71
2021/08/08 08:53:24;;;;;;;2.10;1.75;;;;;;;27.34;89.26;99001.06;1765006;80;21472;-66
2021/08/08 08:55:52;;;;;;;7.17;1.50;;;;;;;27.42;90.29;99006.27;1796310;80;21493;-68
2021/08/08 08:58:20;;;;;;;3.92;1.60;;;;;;;27.52;91.83;98999.18;1749679;80;21779;-67
2021/08/08 09:00:49;;;;;;;3.22;1.70;;;;;;;27.64;92.00;99002.80;1796238;80;20879;-67
2021/08/08 09:03:17;;;;;;;5.33;1.50;;;;;;;27.71;89.05;99001.34;1764899;80;21335;-67
2021/08/08 09:05:45;;;;;;;2.95;1.60;;;;;;;27.79;87.18;99000.23;1796178;80;20899;-69
2021/08/08 09:08:13;;;;;;;2.72;1.45;;;;;;;27.88;83.81;98998.64;1764923;80;21422;-69
2021/08/08 09:10:41;;;;;;;7.47;1.80;;;;;;;27.94;84.69;98999.55;1796351;80;21790;-64
2021/08/08 09:13:10;;;;;;;4.08;1.60;;;;;;;27.98;82.59;99001.02;1764809;80;20923;-65
2021/08/08 09:15:42;;;;;;;4.25;1.65;;;;;;;28.01;78.88;98998.07;1744173;80;20936;-65
2021/08/08 09:18:14;;;;;;;3.77;1.80;;;;;;;28.08;82.96;98994.37;1764729;80;20895;-65
2021/08/08 09:20:46;;;;;;;2.85;1.75;;;;;;;28.14;81.77;99000.16;1796311;80;20943;-65
2021/08/08 09:23:13;;;;;;;10.60;1.95;;;;;;;28.24;81.37;99004.88;1764894;80;21731;-65
2021/08/08 09:25:57;;;;;;;5.47;1.90;;;;;;;28.31;80.21;99005.61;1796130;80;21359;-66
2021/08/08 09:28:29;;;;;;;2.30;2.00;;;;;;;28.37;76.62;98996.97;1764852;80;20994;-64
2021/08/08 09:30:56;;;;;;;2.58;1.70;;;;;;;28.47;77.04;98999.83;1796357;80;20927;-64
2021/08/08 09:33:24;;;;;;;3.22;1.65;;;;;;;28.57;76.05;99001.28;1764947;80;21013;-64
2021/08/08 09:35:56;;;;;;;2.12;1.85;;;;;;;28.65;77.36;98996.95;1796070;80;21414;-64
2021/08/08 09:38:23;;;;;;;4.30;1.90;;;;;;;28.71;76.77;98992.36;1764971;80;21395;-65
2021/08/08 09:40:59;;;;;;;4.50;1.80;;;;;;;28.79;78.37;98991.73;1796002;80;20852;-64
2021/08/08 09:43:29;;;;;;;6.60;2.12;;;;;;;28.86;76.88;98990.29;1764936;80;21490;-70
2021/08/08 09:45:56;;;;;;;2.00;1.70;;;;;;;28.95;77.20;98985.94;1795801;80;21009;-67
2021/08/08 09:48:38;;;;;;;3.72;1.75;;;;;;;29.01;77.80;98989.00;1777365;80;21086;-66
2021/08/08 09:51:06;;;;;;;3.25;1.80;;;;;;;29.06;71.51;98989.97;1760915;80;20924;-66
2021/08/08 09:53:34;;;;;;;2.90;1.70;;;;;;;29.12;72.97;98992.16;1784862;79;20949;-68
2021/08/08 09:56:04;;;;;;;2.50;1.80;;;;;;;29.11;70.33;98988.58;1783724;79;20904;-65
2021/08/08 09:58:39;;;;;;;2.40;1.60;;;;;;;29.13;69.56;98985.23;1776441;80;20896;-67
2021/08/08 10:01:07;;;;;;;13.35;1.70;;;;;;;29.23;70.66;98985.81;1760142;80;21124;-66
2021/08/08 10:03:39;;;;;;;7.45;1.70;;;;;;;29.29;73.44;98987.51;1769256;80;21407;-63
2021/08/08 10:06:11;;;;;;;3.92;1.90;;;;;;;29.32;69.56;98984.52;1782587;80;20930;-70
2021/08/08 10:08:37;;;;;;;5.35;2.70;;;;;;;29.36;69.86;98989.23;1789994;80;20939;-69
2021/08/08 10:11:06;;;;;;;4.75;2.15;;;;;;;29.39;67.45;98987.11;1790434;80;20911;-69
2021/08/08 10:14:02;;;;;;;2.10;1.62;;;;;;;29.42;65.83;98992.28;1790146;80;21113;-70
2021/08/08 10:16:27;;;;;;;4.28;1.70;;;;;;;29.48;67.36;98988.20;1789995;80;21379;-70
2021/08/08 10:18:56;;;;;;;2.10;1.80;;;;;;;29.59;68.88;98989.99;1790044;80;20963;-70
2021/08/08 10:21:24;;;;;;;1.90;1.62;;;;;;;29.68;69.60;98987.33;1790366;80;20983;-70
2021/08/08 10:23:55;;;;;;;2.87;1.90;;;;;;;29.78;69.83;98989.61;1790199;79;20930;-65
2021/08/08 10:26:23;;;;;;;2.17;1.75;;;;;;;29.87;70.84;98987.97;1790559;80;21143;-65
2021/08/08 10:28:52;;;;;;;2.45;1.57;;;;;;;29.93;66.17;98989.28;1790081;80;21427;-65
2021/08/08 10:31:25;;;;;;;5.60;2.25;;;;;;;30.00;66.59;98980.95;1790327;80;20903;-65
2021/08/08 10:33:56;;;;;;;;;;;;;;;30.05;63.84;98980.93;1792793;80;20940;-67
2021/08/08 10:36:32;;;;;;;2.87;1.98;;;;;;;30.10;64.26;98975.58;1790411;80;20096;-67
2021/08/08 10:39:12;;;;;;;4.85;2.15;;;;;;;30.13;64.14;98974.80;1790123;80;21109;-67
2021/08/08 10:41:41;;;;;;;2.12;1.75;;;;;;;30.15;62.92;98975.53;1790072;80;20923;-66
2021/08/08 10:44:12;;;;;;;3.52;2.00;;;;;;;30.20;65.01;98977.34;1790087;80;21439;-66
2021/08/08 10:46:51;;;;;;;2.85;2.00;;;;;;;30.26;65.30;98986.81;1790172;80;21015;-67
2021/08/08 10:49:30;;;;;;;2.25;1.85;;;;;;;30.30;64.83;98985.06;1790074;80;20919;-67
2021/08/08 10:52:03;;;;;;;4.67;1.90;;;;;;;30.32;62.64;98975.41;1790086;80;21110;-67
2021/08/08 10:54:42;;;;;;;4.08;3.05;;;;;;;30.34;63.16;98987.02;1790064;80;20883;-67
2021/08/08 10:57:12;;;;;;;5.35;4.33;;;;;;;30.36;64.60;98983.16;1790434;80;21434;-67
2021/08/08 10:59:50;;;;;;;2.67;2.40;;;;;;;30.42;66.81;98979.52;1790083;79;21455;-67
2021/08/08 11:02:29;;;;;;;5.58;2.10;;;;;;;30.48;62.85;98974.38;1790360;80;20919;-68
2021/08/08 11:04:56;;;;;;;2.42;1.92;;;;;;;30.58;62.07;98967.09;1790103;80;21450;-67
2021/08/08 11:07:29;;;;;;;10.20;2.10;;;;;;;30.64;63.64;98971.14;1790357;80;20891;-67
2021/08/08 11:09:56;;;;;;;12.37;2.22;;;;;;;30.66;62.82;98974.09;1790255;80;20927;-67
2021/08/08 11:12:36;;;;;;;2.40;1.65;;;;;;;30.67;62.04;98974.45;1790345;80;20942;-68
2021/08/08 11:15:07;;;;;;;3.47;1.80;;;;;;;30.70;62.26;98975.52;1788055;79;21407;-67
2021/08/08 11:17:36;;;;;;;3.00;2.00;;;;;;;30.73;60.70;98970.80;1790465;80;21085;-67
2021/08/08 11:20:05;;;;;;;4.28;2.05;;;;;;;30.75;60.30;98962.02;1790003;80;20911;-67
2021/08/08 11:22:32;;;;;;;7.37;2.22;;;;;;;30.74;59.18;98967.08;1790344;80;20919;-67
2021/08/08 11:25:04;;;;;;;3.52;1.80;;;;;;;30.76;58.44;98964.60;1790079;80;20876;-67
2021/08/08 11:27:40;;;;;;;;;;;;;;;30.76;58.70;98967.33;1792768;79;20923;-67
2021/08/08 11:30:11;;;;;;;6.10;2.10;;;;;;;30.76;60.06;98961.88;1789976;79;21294;-67
2021/08/08 11:32:38;;;;;;;2.20;1.62;;;;;;;30.79;58.04;98966.18;1790554;80;21517;-68
2021/08/08 11:35:13;;;;;;;1.77;1.42;;;;;;;30.87;59.97;98967.69;1790080;80;20880;-67
2021/08/08 11:37:46;;;;;;;4.22;1.72;;;;;;;30.93;59.69;98970.70;1790165;80;21439;-67
2021/08/08 11:40:30;;;;;;;2.22;1.72;;;;;;;31.02;57.87;98975.80;1790190;80;21405;-67
2021/08/08 11:43:01;;;;;;;3.58;1.77;;;;;;;31.03;54.04;98974.80;1790384;80;21756;-67
2021/08/08 11:45:41;;;;;;;4.05;1.80;;;;;;;31.06;55.02;98974.51;1790959;80;20903;-67
2021/08/08 11:48:10;;;;;;;;;;;;;;;31.09;54.47;98972.86;1788415;80;21479;-68
2021/08/08 11:50:37;;;;;;;1.98;1.77;;;;;;;31.12;52.85;98970.34;1779891;80;20117;-67
2021/08/08 11:53:07;;;;;;;2.05;1.87;;;;;;;31.16;52.66;98957.69;1798437;79;20930;-67